Terminal Aerodrome Forecast
Issued by NWS

Home | Current Version | Previous Version | Text Only | Print | Product List | Glossary On
Versions: 1 2 3 4 5 6 7 8 9 10 11 12 13 14 15 16 17
476
FTUS42 KMLB 190525
TAFTIX
TAF
KTIX 190525Z 1906/2006 VRB02KT P6SM SCT250
     FM191500 22005KT P6SM SCT025 SCT250
     FM191800 11008KT P6SM SCT040
      AMD NOT SKED TIL 191100=

USA.gov is the U.S. government's official web portal to all federal, state and local government web resources and services.